Salem, Wisconsin
Current Conditions -  °F | °C
As of 7:53 AM on Tuesday 21 Oct 2014 (Local Time) from KENW Reporting Station
Broken Clouds Broken Clouds  
Wind Chill: 40°   Ceiling: 3700
Heat Index: 44°   Visibility: 10mi
Dew Point: 39°   Wind: 7mph
Humidity: 82%   Direction: 330°NNW
Pressure: 30.14"   Gusts: NA
Location:  42.55°N, 88.11°W
Report Text: KENW 211253Z 33006KT 10SM FEW020 BKN037 07/04 A3014 RMK AO2 SLP209 T00670039
Loading
Personal Weather Stations






























Interactive Weather Map
Tropical Storm Tracking
New forecast layout! Learn more

10-Day Weather Forecast

Advertisements
Track Severe Weather on mobile